Terminal Aerodrome Forecast
Issued by NWS

Home | Current Version | Previous Version | Text Only | Print | Product List | Glossary On
Versions: 1 2 3 4 5 6 7 8 9 10 11 12 13 14
206
FTAK31 PAJN 211723
TAFAPG
TAF
PAPG 211723Z 2118/2218 07006KT P6SM BKN050
     FM212100 11008KT P6SM VCSH OVC050
     FM220000 10006KT 6SM -RA SCT025 OVC050
     FM221200 07005KT 4SM -RA BR SCT015 OVC025
      AMD LTD TO CLD VIS AND WIND 2206/2215=

USA.gov is the U.S. government's official web portal to all federal, state and local government web resources and services.